Wetterstation Vordersexau
Wetterdaten: Woche 25.01.16 - 31.01.16 (KW4)
Datum Zeit Temp. A. Feuchte A. Luftdruck Regen Wind Richtung Taupunkt Windchill Windben
25.01.2016 00:00 2,8 C 86 % 1029,0 hPa 0,0 l/m 0,0 km/h NO 0,7 C 2,8 C 0,0 km/h
25.01.2016 01:00 1,8 C 87 % 1029,0 hPa 0,0 l/m 0,0 km/h NO -0,1 C 1,8 C 0,0 km/h
25.01.2016 02:00 0,9 C 88 % 1028,7 hPa 0,0 l/m 0,0 km/h NO -0,9 C 0,9 C 0,0 km/h
25.01.2016 03:00 0,5 C 89 % 1028,4 hPa 0,0 l/m 0,0 km/h NO -1,1 C 0,5 C 0,0 km/h
25.01.2016 04:00 -0,1 C 88 % 1028,2 hPa 0,0 l/m 0,0 km/h O -1,8 C -0,1 C 0,0 km/h
25.01.2016 05:00 -0,6 C 89 % 1028,1 hPa 0,0 l/m 0,0 km/h SO -2,2 C -0,6 C 0,0 km/h
25.01.2016 06:00 -0,9 C 89 % 1027,8 hPa 0,0 l/m 0,0 km/h NO -2,5 C -0,9 C 0,0 km/h
25.01.2016 07:00 -1,1 C 89 % 1027,4 hPa 0,0 l/m 0,0 km/h O -2,7 C -1,1 C 0,0 km/h
25.01.2016 08:00 -1,0 C 89 % 1027,5 hPa 0,0 l/m 0,0 km/h S-SO -2,6 C -1,0 C 0,0 km/h
25.01.2016 09:00 4,8 C 88 % 1027,5 hPa 0,0 l/m 0,0 km/h S-SO 3,0 C 4,8 C 0,0 km/h
25.01.2016 10:00 11,4 C 73 % 1027,6 hPa 0,0 l/m 0,0 km/h S-SO 6,7 C 11,4 C 0,0 km/h
25.01.2016 11:00 14,3 C 62 % 1027,6 hPa 0,0 l/m 0,0 km/h W 7,1 C 14,3 C 0,0 km/h
25.01.2016 12:00 14,4 C 59 % 1027,0 hPa 0,0 l/m 0,0 km/h W 6,5 C 14,4 C 0,0 km/h
25.01.2016 13:00 15,4 C 56 % 1026,2 hPa 0,0 l/m 0,0 km/h W 6,7 C 15,4 C 0,0 km/h
25.01.2016 14:00 18,2 C 50 % 1025,3 hPa 0,0 l/m 0,0 km/h S-SO 7,6 C 18,2 C 0,0 km/h
25.01.2016 15:00 20,4 C 43 % 1024,9 hPa 0,0 l/m 0,0 km/h SO 7,4 C 20,4 C 0,0 km/h
25.01.2016 16:00 15,0 C 49 % 1024,8 hPa 0,0 l/m 0,0 km/h O-SO 4,4 C 15,0 C 0,0 km/h
25.01.2016 17:00 6,7 C 67 % 1025,3 hPa 0,0 l/m 0,0 km/h O-SO 1,0 C 6,7 C 0,0 km/h
25.01.2016 18:00 4,6 C 77 % 1025,4 hPa 0,0 l/m 1,9 km/h SO 0,9 C 4,6 C 1,1 km/h
25.01.2016 19:00 3,8 C 81 % 1025,6 hPa 0,0 l/m 0,0 km/h SO 0,8 C 3,8 C 0,0 km/h
25.01.2016 20:00 3,5 C 82 % 1025,9 hPa 0,0 l/m 0,0 km/h O-SO 0,7 C 3,5 C 0,0 km/h
25.01.2016 21:00 2,3 C 83 % 1026,2 hPa 0,0 l/m 0,0 km/h O-SO -0,3 C 2,3 C 0,0 km/h
25.01.2016 22:00 2,3 C 83 % 1026,6 hPa 0,0 l/m 0,0 km/h SO -0,3 C 2,3 C 0,0 km/h
25.01.2016 23:00 2,5 C 84 % 1026,8 hPa 0,0 l/m 0,0 km/h O-SO 0,1 C 2,5 C 0,0 km/h
26.01.2016 00:00 2,6 C 84 % 1027,5 hPa 0,0 l/m 0,0 km/h O-SO 0,2 C 2,6 C 0,0 km/h
26.01.2016 01:00 2,5 C 84 % 1027,5 hPa 0,0 l/m 0,0 km/h SO 0,1 C 2,5 C 0,0 km/h
26.01.2016 02:00 2,6 C 85 % 1027,5 hPa 0,0 l/m 7,1 km/h SO 0,3 C 1,9 C 4,0 km/h
26.01.2016 03:00 2,8 C 85 % 1028,0 hPa 0,0 l/m 3,2 km/h SO 0,5 C 2,8 C 1,8 km/h
26.01.2016 04:00 3,5 C 84 % 1027,7 hPa 0,0 l/m 1,9 km/h O-NO 1,1 C 3,5 C 1,1 km/h
26.01.2016 05:00 3,8 C 85 % 1027,3 hPa 0,0 l/m 0,0 km/h SO 1,5 C 3,8 C 0,0 km/h
26.01.2016 06:00 3,3 C 85 % 1026,2 hPa 0,0 l/m 0,6 km/h O-SO 1,0 C 3,3 C 0,4 km/h
26.01.2016 07:00 2,9 C 87 % 1026,0 hPa 0,0 l/m 0,0 km/h NO 1,0 C 2,9 C 0,0 km/h
26.01.2016 08:00 3,6 C 87 % 1025,9 hPa 0,0 l/m 0,0 km/h SO 1,6 C 3,6 C 0,0 km/h
26.01.2016 09:00 5,1 C 86 % 1025,8 hPa 0,0 l/m 0,0 km/h SO 3,0 C 5,1 C 0,0 km/h
26.01.2016 10:00 8,4 C 78 % 1025,7 hPa 0,0 l/m 0,0 km/h S-SO 4,8 C 8,4 C 0,0 km/h
26.01.2016 11:00 15,9 C 65 % 1025,8 hPa 0,0 l/m 18,8 km/h W 9,3 C 11,2 C 10,4 km/h
26.01.2016 12:00 18,2 C 49 % 1025,2 hPa 0,0 l/m 23,3 km/h W 7,3 C 13,2 C 13,0 km/h
26.01.2016 13:00 18,1 C 50 % 1024,7 hPa 0,0 l/m 18,1 km/h W 7,5 C 14,2 C 10,1 km/h
26.01.2016 14:00 18,3 C 51 % 1024,1 hPa 0,0 l/m 19,4 km/h W-NW 8,0 C 14,1 C 10,8 km/h
26.01.2016 15:00 18,8 C 50 % 1024,1 hPa 0,0 l/m 18,1 km/h W-SW 8,2 C 15,1 C 10,1 km/h
26.01.2016 16:00 17,1 C 53 % 1023,2 hPa 0,0 l/m 2,6 km/h W-NW 7,4 C 17,1 C 1,4 km/h
26.01.2016 17:00 13,3 C 62 % 1024,1 hPa 0,0 l/m 6,5 km/h W-NW 6,2 C 13,3 C 3,6 km/h
26.01.2016 18:00 11,9 C 66 % 1024,1 hPa 0,0 l/m 4,5 km/h NO 5,8 C 11,9 C 2,5 km/h
26.01.2016 19:00 9,3 C 73 % 1024,1 hPa 0,0 l/m 0,0 km/h NO 4,7 C 9,3 C 0,0 km/h
26.01.2016 20:00 7,4 C 81 % 1024,1 hPa 0,0 l/m 0,6 km/h O-NO 4,4 C 7,4 C 0,4 km/h
26.01.2016 21:00 6,2 C 83 % 1024,0 hPa 0,0 l/m 0,0 km/h O-SO 3,5 C 6,2 C 0,0 km/h
26.01.2016 22:00 5,2 C 85 % 1024,3 hPa 0,0 l/m 0,0 km/h N-NO 2,9 C 5,2 C 0,0 km/h
26.01.2016 23:00 4,8 C 86 % 1023,9 hPa 0,0 l/m 0,0 km/h NO 2,7 C 4,8 C 0,0 km/h
27.01.2016 00:00 4,7 C 87 % 1024,0 hPa 0,0 l/m 0,0 km/h NO 2,7 C 4,7 C 0,0 km/h
27.01.2016 01:00 4,5 C 87 % 1023,6 hPa 0,0 l/m 0,0 km/h SO 2,5 C 4,5 C 0,0 km/h
27.01.2016 02:00 3,6 C 88 % 1023,5 hPa 0,0 l/m 0,0 km/h SO 1,8 C 3,6 C 0,0 km/h
27.01.2016 03:00 3,4 C 88 % 1023,6 hPa 0,0 l/m 0,0 km/h NO 1,6 C 3,4 C 0,0 km/h
27.01.2016 04:00 5,0 C 88 % 1023,6 hPa 0,0 l/m 0,0 km/h W-SW 3,2 C 5,0 C 0,0 km/h
27.01.2016 05:00 5,7 C 88 % 1023,3 hPa 0,0 l/m 0,0 km/h W 3,9 C 5,7 C 0,0 km/h
27.01.2016 06:00 9,5 C 85 % 1023,3 hPa 0,0 l/m 7,1 km/h SW 7,1 C 9,0 C 4,0 km/h
27.01.2016 07:00 10,4 C 81 % 1023,1 hPa 0,0 l/m 0,0 km/h W-SW 7,3 C 10,4 C 0,0 km/h
27.01.2016 08:00 11,3 C 79 % 1023,3 hPa 0,0 l/m 0,0 km/h SW 7,8 C 11,3 C 0,0 km/h
27.01.2016 09:00 12,1 C 76 % 1023,2 hPa 0,0 l/m 11,7 km/h S-SW 8,0 C 9,1 C 6,5 km/h
27.01.2016 10:00 13,1 C 71 % 1023,0 hPa 0,0 l/m 28,5 km/h S-SW 8,0 C 5,3 C 15,8 km/h
27.01.2016 11:00 13,4 C 70 % 1022,7 hPa 0,0 l/m 4,5 km/h W 8,0 C 13,4 C 2,5 km/h
27.01.2016 12:00 14,1 C 67 % 1022,3 hPa 0,0 l/m 1,9 km/h W 8,1 C 14,1 C 1,1 km/h
27.01.2016 13:00 14,6 C 64 % 1021,2 hPa 0,0 l/m 6,5 km/h SW 7,9 C 14,6 C 3,6 km/h
27.01.2016 14:00 14,9 C 63 % 1020,4 hPa 0,0 l/m 1,3 km/h S 7,9 C 14,9 C 0,7 km/h
27.01.2016 15:00 14,1 C 63 % 1019,9 hPa 0,0 l/m 3,2 km/h W-SW 7,2 C 14,1 C 1,8 km/h
27.01.2016 16:00 14,3 C 60 % 1019,5 hPa 0,0 l/m 2,6 km/h W-SW 6,6 C 14,3 C 1,4 km/h
27.01.2016 17:00 13,3 C 64 % 1019,5 hPa 0,0 l/m 0,0 km/h S 6,6 C 13,3 C 0,0 km/h
27.01.2016 18:00 13,5 C 63 % 1019,4 hPa 0,0 l/m 0,0 km/h S-SW 6,6 C 13,5 C 0,0 km/h
27.01.2016 19:00 13,9 C 62 % 1019,3 hPa 0,0 l/m 3,2 km/h S 6,7 C 13,9 C 1,8 km/h
27.01.2016 20:00 13,4 C 62 % 1018,7 hPa 0,0 l/m 0,0 km/h S-SW 6,3 C 13,4 C 0,0 km/h
27.01.2016 21:00 13,9 C 60 % 1018,3 hPa 0,0 l/m 1,9 km/h W-SW 6,3 C 13,9 C 1,1 km/h
27.01.2016 22:00 13,8 C 60 % 1018,2 hPa 0,0 l/m 0,0 km/h W-SW 6,2 C 13,8 C 0,0 km/h
27.01.2016 23:00 13,1 C 62 % 1018,3 hPa 0,0 l/m 16,8 km/h W-SW 6,0 C 8,3 C 9,4 km/h
28.01.2016 00:00 13,0 C 62 % 1018,2 hPa 0,0 l/m 16,8 km/h W-SW 5,9 C 8,1 C 9,4 km/h
28.01.2016 01:00 12,5 C 65 % 1019,1 hPa 0,0 l/m 26,6 km/h W 6,1 C 4,9 C 14,8 km/h
28.01.2016 02:00 12,1 C 68 % 1019,4 hPa 0,0 l/m 20,1 km/h W 6,4 C 6,0 C 11,2 km/h
28.01.2016 03:00 11,9 C 68 % 1019,8 hPa 0,0 l/m 18,1 km/h W-SW 6,2 C 6,3 C 10,1 km/h
28.01.2016 04:00 12,1 C 66 % 1019,8 hPa 0,0 l/m 0,0 km/h W-SW 5,9 C 12,1 C 0,0 km/h
28.01.2016 05:00 12,1 C 65 % 1020,2 hPa 0,0 l/m 27,2 km/h W 5,7 C 4,2 C 15,1 km/h
28.01.2016 06:00 11,9 C 67 % 1020,8 hPa 0,0 l/m 22,7 km/h W-SW 6,0 C 5,0 C 12,6 km/h
28.01.2016 07:00 11,9 C 68 % 1021,1 hPa 0,0 l/m 16,8 km/h W 6,2 C 6,8 C 9,4 km/h
28.01.2016 08:00 11,4 C 71 % 1021,9 hPa 0,0 l/m 1,9 km/h W-SW 6,3 C 11,4 C 1,1 km/h
28.01.2016 09:00 11,0 C 75 % 1022,8 hPa 0,0 l/m 8,4 km/h W-SW 6,7 C 9,6 C 4,7 km/h
28.01.2016 10:00 11,3 C 75 % 1023,3 hPa 0,0 l/m 7,8 km/h W-SW 7,0 C 10,3 C 4,3 km/h
28.01.2016 11:00 11,5 C 76 % 1023,5 hPa 0,0 l/m 22,0 km/h N-NW 7,4 C 4,6 C 12,2 km/h
28.01.2016 12:00 10,9 C 78 % 1023,8 hPa 0,0 l/m 0,0 km/h N-NW 7,2 C 10,9 C 0,0 km/h
28.01.2016 13:00 9,9 C 82 % 1023,6 hPa 0,0 l/m 0,0 km/h O-SO 7,0 C 9,9 C 0,0 km/h
28.01.2016 14:00 9,4 C 83 % 1023,7 hPa 0,4 l/m 0,0 km/h O-SO 6,7 C 9,4 C 0,0 km/h
28.01.2016 15:00 8,7 C 85 % 1023,9 hPa 0,4 l/m 0,0 km/h O-SO 6,3 C 8,7 C 0,0 km/h
28.01.2016 16:00 8,4 C 86 % 1024,1 hPa 0,8 l/m 0,0 km/h O-SO 6,2 C 8,4 C 0,0 km/h
28.01.2016 17:00 7,9 C 87 % 1024,6 hPa 0,4 l/m 0,0 km/h SO 5,9 C 7,9 C 0,0 km/h
28.01.2016 18:00 7,5 C 88 % 1024,9 hPa 0,8 l/m 0,0 km/h SO 5,6 C 7,5 C 0,0 km/h
28.01.2016 19:00 7,3 C 88 % 1024,9 hPa 0,4 l/m 0,0 km/h O 5,4 C 7,3 C 0,0 km/h
28.01.2016 20:00 7,1 C 88 % 1025,2 hPa 0,0 l/m 0,0 km/h O-NO 5,2 C 7,1 C 0,0 km/h
28.01.2016 21:00 6,8 C 87 % 1025,3 hPa 0,4 l/m 0,0 km/h O-NO 4,8 C 6,8 C 0,0 km/h
28.01.2016 22:00 6,5 C 87 % 1025,3 hPa 0,8 l/m 0,0 km/h O-NO 4,5 C 6,5 C 0,0 km/h
28.01.2016 23:00 6,5 C 87 % 1025,6 hPa 0,8 l/m 0,0 km/h NW 4,5 C 6,5 C 0,0 km/h
29.01.2016 00:00 6,4 C 86 % 1026,1 hPa 0,8 l/m 0,0 km/h NW 4,2 C 6,4 C 0,0 km/h
29.01.2016 01:00 6,2 C 86 % 1026,6 hPa 0,4 l/m 0,0 km/h NW 4,0 C 6,2 C 0,0 km/h
29.01.2016 02:00 6,1 C 86 % 1027,2 hPa 0,4 l/m 0,0 km/h NW 3,9 C 6,1 C 0,0 km/h
29.01.2016 03:00 6,1 C 86 % 1027,5 hPa 0,0 l/m 0,0 km/h NW 3,9 C 6,1 C 0,0 km/h
29.01.2016 04:00 5,3 C 86 % 1027,6 hPa 0,0 l/m 0,0 km/h N-NW 3,2 C 5,3 C 0,0 km/h
29.01.2016 05:00 5,0 C 86 % 1028,3 hPa 0,0 l/m 0,0 km/h N-NW 2,9 C 5,0 C 0,0 km/h
29.01.2016 06:00 4,9 C 86 % 1028,9 hPa 0,0 l/m 0,0 km/h N-NO 2,8 C 4,9 C 0,0 km/h
29.01.2016 07:00 4,9 C 86 % 1029,3 hPa 0,0 l/m 0,0 km/h N-NO 2,8 C 4,9 C 0,0 km/h
29.01.2016 08:00 5,4 C 85 % 1029,2 hPa 0,0 l/m 0,0 km/h N-NO 3,1 C 5,4 C 0,0 km/h
29.01.2016 09:00 6,1 C 84 % 1029,3 hPa 0,0 l/m 0,0 km/h S-SW 3,6 C 6,1 C 0,0 km/h
29.01.2016 10:00 8,8 C 83 % 1029,5 hPa 0,0 l/m 0,0 km/h W 6,1 C 8,8 C 0,0 km/h
29.01.2016 11:00 8,6 C 82 % 1029,7 hPa 0,0 l/m 2,6 km/h W-NW 5,7 C 8,6 C 1,4 km/h
29.01.2016 12:00 10,5 C 73 % 1029,2 hPa 0,0 l/m 23,3 km/h W 5,9 C 3,0 C 13,0 km/h
29.01.2016 13:00 10,7 C 72 % 1028,9 hPa 0,0 l/m 16,2 km/h W-SW 5,9 C 5,5 C 9,0 km/h
29.01.2016 14:00 12,5 C 67 % 1028,3 hPa 0,0 l/m 21,4 km/h W 6,5 C 6,1 C 11,9 km/h
29.01.2016 15:00 12,2 C 67 % 1028,6 hPa 0,0 l/m 24,0 km/h SW 6,3 C 5,1 C 13,3 km/h
29.01.2016 16:00 10,8 C 67 % 1028,4 hPa 0,0 l/m 16,2 km/h SW 4,9 C 5,6 C 9,0 km/h
29.01.2016 17:00 6,9 C 77 % 1028,1 hPa 0,0 l/m 13,0 km/h W-SW 3,2 C 2,4 C 7,2 km/h
29.01.2016 18:00 6,4 C 78 % 1028,1 hPa 0,0 l/m 0,0 km/h W-SW 2,8 C 6,4 C 0,0 km/h
29.01.2016 19:00 6,3 C 78 % 1028,1 hPa 0,0 l/m 2,6 km/h S-SW 2,8 C 6,3 C 1,4 km/h
29.01.2016 20:00 6,4 C 80 % 1027,9 hPa 0,0 l/m 24,6 km/h S 3,2 C -2,9 C 13,7 km/h
29.01.2016 21:00 6,6 C 80 % 1027,9 hPa 0,0 l/m 24,0 km/h SW 3,4 C -2,5 C 13,3 km/h
29.01.2016 22:00 6,8 C 77 % 1027,4 hPa 0,0 l/m 27,2 km/h S-SW 3,1 C -3,1 C 15,1 km/h
29.01.2016 23:00 7,1 C 77 % 1027,1 hPa 0,0 l/m 9,7 km/h SW 3,3 C 4,6 C 5,4 km/h
30.01.2016 00:00 7,3 C 78 % 1026,6 hPa 0,0 l/m 10,4 km/h SW 3,7 C 4,4 C 5,8 km/h
30.01.2016 01:00 7,1 C 78 % 1026,1 hPa 0,0 l/m 22,7 km/h W-SW 3,5 C -1,4 C 12,6 km/h
30.01.2016 02:00 6,9 C 79 % 1025,4 hPa 0,0 l/m 22,7 km/h S 3,5 C -1,7 C 12,6 km/h
30.01.2016 03:00 6,9 C 78 % 1024,4 hPa 0,0 l/m 25,3 km/h W-SW 3,3 C -2,5 C 14,0 km/h
30.01.2016 04:00 6,8 C 78 % 1023,9 hPa 0,0 l/m 10,4 km/h S 3,2 C 3,8 C 5,8 km/h
30.01.2016 05:00 6,9 C 77 % 1023,3 hPa 0,0 l/m 29,8 km/h S-SW 3,2 C -3,7 C 16,6 km/h
30.01.2016 06:00 6,9 C 76 % 1022,7 hPa 0,0 l/m 5,2 km/h SW 3,0 C 6,9 C 2,9 km/h
30.01.2016 07:00 6,9 C 75 % 1022,2 hPa 0,0 l/m 35,0 km/h S-SW 2,8 C -4,8 C 19,4 km/h
30.01.2016 08:00 7,2 C 75 % 1022,1 hPa 0,0 l/m 20,7 km/h W-SW 3,1 C -0,6 C 11,5 km/h
30.01.2016 09:00 7,9 C 74 % 1021,8 hPa 0,0 l/m 22,0 km/h W-SW 3,6 C -0,1 C 12,2 km/h
30.01.2016 10:00 7,9 C 74 % 1021,1 hPa 0,0 l/m 28,5 km/h W 3,6 C -1,9 C 15,8 km/h
30.01.2016 11:00 7,6 C 76 % 1020,5 hPa 0,0 l/m 27,2 km/h W 3,6 C -2,0 C 15,1 km/h
30.01.2016 12:00 8,0 C 76 % 1018,8 hPa 0,0 l/m 20,7 km/h W 4,0 C 0,5 C 11,5 km/h
30.01.2016 13:00 9,1 C 75 % 1017,9 hPa 0,0 l/m 13,6 km/h W 4,9 C 4,7 C 7,6 km/h
30.01.2016 14:00 9,9 C 68 % 1015,9 hPa 0,0 l/m 31,8 km/h W-SW 4,3 C 0,1 C 17,6 km/h
30.01.2016 15:00 9,6 C 70 % 1014,8 hPa 0,0 l/m 18,8 km/h W-SW 4,4 C 3,2 C 10,4 km/h
30.01.2016 16:00 9,6 C 69 % 1013,2 hPa 0,0 l/m 46,7 km/h W-SW 4,2 C -2,6 C 25,9 km/h
30.01.2016 17:00 7,5 C 84 % 1013,0 hPa 0,4 l/m 20,1 km/h W 5,0 C 0,0 C 11,2 km/h
30.01.2016 18:00 7,8 C 86 % 1012,7 hPa 0,4 l/m 23,3 km/h W-SW 5,6 C -0,6 C 13,0 km/h
30.01.2016 19:00 7,5 C 87 % 1012,8 hPa 0,4 l/m 20,1 km/h W-SW 5,5 C 0,0 C 11,2 km/h
30.01.2016 20:00 7,6 C 88 % 1013,2 hPa 0,0 l/m 49,2 km/h W-NW 5,7 C -5,9 C 27,4 km/h
30.01.2016 21:00 7,3 C 87 % 1013,5 hPa 1,2 l/m 21,4 km/h NW 5,3 C -0,7 C 11,9 km/h
30.01.2016 22:00 7,1 C 86 % 1013,6 hPa 2,1 l/m 11,0 km/h W 4,9 C 3,8 C 6,1 km/h
30.01.2016 23:00 6,5 C 86 % 1014,2 hPa 1,7 l/m 11,7 km/h NW 4,3 C 2,7 C 6,5 km/h
31.01.2016 00:00 5,9 C 86 % 1014,7 hPa 1,2 l/m 9,1 km/h NW 3,7 C 3,7 C 5,0 km/h
31.01.2016 01:00 5,4 C 87 % 1014,6 hPa 1,2 l/m 0,0 km/h N-NW 3,4 C 5,4 C 0,0 km/h
31.01.2016 02:00 5,4 C 87 % 1014,8 hPa 1,7 l/m 0,0 km/h W 3,4 C 5,4 C 0,0 km/h
31.01.2016 03:00 5,8 C 85 % 1014,3 hPa 0,8 l/m 9,1 km/h W-SW 3,5 C 3,6 C 5,0 km/h
31.01.2016 04:00 5,6 C 85 % 1014,7 hPa 0,4 l/m 3,2 km/h W 3,3 C 5,6 C 1,8 km/h
31.01.2016 05:00 5,5 C 86 % 1014,7 hPa 0,0 l/m 5,2 km/h S 3,3 C 5,5 C 2,9 km/h
31.01.2016 06:00 5,1 C 88 % 1014,8 hPa 0,0 l/m 1,9 km/h SW 3,3 C 5,1 C 1,1 km/h
31.01.2016 07:00 5,3 C 88 % 1014,4 hPa 0,0 l/m 0,0 km/h W-NW 3,5 C 5,3 C 0,0 km/h
31.01.2016 08:00 5,1 C 88 % 1014,6 hPa 0,0 l/m 0,0 km/h W 3,3 C 5,1 C 0,0 km/h
31.01.2016 09:00 5,6 C 88 % 1014,3 hPa 0,0 l/m 0,0 km/h S-SW 3,8 C 5,6 C 0,0 km/h
31.01.2016 10:00 5,6 C 88 % 1013,6 hPa 0,4 l/m 0,0 km/h NW 3,8 C 5,6 C 0,0 km/h
31.01.2016 11:00 6,1 C 88 % 1013,5 hPa 0,0 l/m 0,0 km/h NW 4,3 C 6,1 C 0,0 km/h
31.01.2016 12:00 7,2 C 88 % 1012,5 hPa 0,0 l/m 0,0 km/h N-NW 5,3 C 7,2 C 0,0 km/h
31.01.2016 13:00 6,9 C 88 % 1012,0 hPa 0,4 l/m 0,0 km/h W 5,1 C 6,9 C 0,0 km/h
31.01.2016 14:00 7,6 C 88 % 1011,2 hPa 0,4 l/m 8,4 km/h W-SW 5,7 C 6,0 C 4,7 km/h
31.01.2016 15:00 9,8 C 87 % 1011,5 hPa 0,0 l/m 21,4 km/h W 7,7 C 2,6 C 11,9 km/h
31.01.2016 16:00 10,1 C 87 % 1012,0 hPa 0,0 l/m 22,7 km/h W-NW 8,0 C 2,6 C 12,6 km/h
31.01.2016 17:00 10,7 C 87 % 1012,7 hPa 0,0 l/m 24,0 km/h SW 8,6 C 3,0 C 13,3 km/h
31.01.2016 18:00 10,8 C 86 % 1013,1 hPa 0,4 l/m 24,0 km/h W-SW 8,6 C 3,2 C 13,3 km/h
31.01.2016 19:00 11,0 C 87 % 1013,6 hPa 0,0 l/m 26,6 km/h W 8,9 C 2,8 C 14,8 km/h
31.01.2016 20:00 11,8 C 88 % 1014,1 hPa 0,0 l/m 12,3 km/h W 9,9 C 8,4 C 6,8 km/h
31.01.2016 21:00 12,1 C 87 % 1014,4 hPa 0,0 l/m 20,1 km/h W-NW 10,0 C 6,0 C 11,2 km/h
31.01.2016 22:00 12,3 C 87 % 1015,1 hPa 0,0 l/m 36,3 km/h SW 10,2 C 2,8 C 20,2 km/h
31.01.2016 23:00 12,8 C 87 % 1015,7 hPa 0,0 l/m 26,6 km/h SW 10,7 C 5,3 C 14,8 km/h
Min-Datum _ 25.01.16 25.01.16 31.01.16 - 25.01.16 - 25.01.16 30.01.16 25.01.16
_ Min-Zeit 07:42 15:42 14:42 - 00:42 - 07:42 20:42 00:42
Minimum _ -1,1 C 43 % 1011,2 hPa - 0,0 km/h - -2,7 C -5,9 C 0,0 km/h
Max-Datum _ 25.01.16 25.01.16 29.01.16 30.01.16 30.01.16 - 31.01.16 25.01.16 30.01.16
_ Max-Zeit 15:42 03:42 11:42 22:42 20:42 - 23:42 15:42 20:42
Maximum _ 20,4 C 89 % 1029,7 hPa 2,1 l/m 49,2 km/h
W-NW
- 10,7 C 20,4 C 27,4 km/h
W-NW
Durchschnitt _ 8,3 C 78 % 1022,5 hPa #20,3 l/m 8,4 km/h W-SW 4,5 C 5,9 C 4,7 km/h
www.sexauwetter.de